Aeroporto :
LOGIN :

Iscrizione | Disclaimer

   EN    FR    IT 

 










Sommario :    VFR   VFR Marginale   IFR   IFR Intensivo   IFR Molto Intensivo
Visibilità : 
Base nubi : 
>= 8 km
>= 3000ft
5 / 8 km
1000 / 3000 ft
1500m / 5 km
500 / 1000 ft
800 / 1500m
200 / 500 ft
< 800m
< 200 ft
Simboli :   Temporali  Nebbia  Neve Forte  Precipitazioni Forti  Vento > 20 kt
SIGMETs :   Varie  Temporali  Ghiacco  Turbolenza  Onda orograficha  Ceneri Vulcaniche






- Altitudine del aeroporto : 1411 ft
- Codice IATA : GVA


LSGG - Genève Cointrin

ULTIMO METAR :
  • 252350Z AUTO 06006KT 020V080 CAVOK 15/08 Q1029 NOSIG

METARs OBSOLETI :
  • 252320Z AUTO 04010KT CAVOK 16/08 Q1029 NOSIG
  • 252250Z AUTO 04010KT CAVOK 16/08 Q1030 NOSIG
  • 252220Z AUTO 05009KT CAVOK 16/08 Q1029 NOSIG
  • 252150Z AUTO 03008KT CAVOK 16/07 Q1030 NOSIG
  • 252120Z 03008KT CAVOK 17/06 Q1029 NOSIG

TAF TAF LSGG
Valido dal 26 a 00 ore il 27 a 06 ore UTC


252325Z 2600/2706 05012KT CAVOK TX23/2615Z TN12/2605Z TN10/2705Z
BECMG 2621/2624 VRB03KT
ATIS : +41 22 417 40 81



MetMap, La meteo Aeronautica in un colpo d'occhio ! - Copyright ORBIFLY Dicembre 2007 - Disclaimer

ORBIFLY MET'MAP TEAM :

Programmazione e sviluppo : Alexandra Zaïnal
Concezione : Baudouin d'Aumeries
Aiuto per la programmazione : Marc-Olivier Méhu
Supporto tecnico e logistico : Manuel Goepfert
Aiuto per la traduzione : Arnaldo La Scala

Contatto : metmap@orbifly.com




FONTI E CREDITI :

   NOAA